sensor_id;sensor_type;location;lat;lon;timestamp;temperature;humidity
67974;DHT22;54756;51.140;6.952;2024-03-02T00:00:04;8.20;99.90
67974;DHT22;54756;51.140;6.952;2024-03-02T00:02:09;8.20;99.90
67974;DHT22;54756;51.140;6.952;2024-03-02T00:04:10;8.20;99.90
67974;DHT22;54756;51.140;6.952;2024-03-02T00:06:11;8.20;99.90
67974;DHT22;54756;51.140;6.952;2024-03-02T00:08:13;8.20;99.90
67974;DHT22;54756;51.140;6.952;2024-03-02T00:10:21;8.30;99.90
67974;DHT22;54756;51.140;6.952;2024-03-02T00:12:23;8.30;99.90
67974;DHT22;54756;51.140;6.952;2024-03-02T00:14:24;8.20;99.90
67974;DHT22;54756;51.140;6.952;2024-03-02T00:16:30;8.20;99.90
67974;DHT22;54756;51.140;6.952;2024-03-02T00:18:32;8.30;99.90
67974;DHT22;54756;51.140;6.952;2024-03-02T00:20:33;8.30;99.90
67974;DHT22;54756;51.140;6.952;2024-03-02T00:22:35;8.30;99.90
67974;DHT22;54756;51.140;6.952;2024-03-02T00:24:37;8.30;99.90
67974;DHT22;54756;51.140;6.952;2024-03-02T00:26:39;8.30;99.90
67974;DHT22;54756;51.140;6.952;2024-03-02T00:28:40;8.30;99.90
67974;DHT22;54756;51.140;6.952;2024-03-02T00:30:58;8.30;99.90
67974;DHT22;54756;51.140;6.952;2024-03-02T00:32:59;8.30;99.90
67974;DHT22;54756;51.140;6.952;2024-03-02T00:35:00;8.30;99.90
67974;DHT22;54756;51.140;6.952;2024-03-02T00:37:00;8.30;99.90
67974;DHT22;54756;51.140;6.952;2024-03-02T00:39:01;8.30;99.90
67974;DHT22;54756;51.140;6.952;2024-03-02T00:41:05;8.30;99.90
67974;DHT22;54756;51.140;6.952;2024-03-02T00:45:28;8.30;99.90
67974;DHT22;54756;51.140;6.952;2024-03-02T00:47:29;8.30;99.90
67974;DHT22;54756;51.140;6.952;2024-03-02T00:49:29;8.40;99.90
67974;DHT22;54756;51.140;6.952;2024-03-02T00:51:31;8.40;99.90
67974;DHT22;54756;51.140;6.952;2024-03-02T00:53:32;8.40;99.90
67974;DHT22;54756;51.140;6.952;2024-03-02T00:55:36;8.40;99.90
67974;DHT22;54756;51.140;6.952;2024-03-02T00:57:38;8.40;99.90
67974;DHT22;54756;51.140;6.952;2024-03-02T00:59:38;8.40;99.90
67974;DHT22;54756;51.140;6.952;2024-03-02T01:01:39;8.40;99.90
67974;DHT22;54756;51.140;6.952;2024-03-02T01:03:39;8.40;99.90
67974;DHT22;54756;51.140;6.952;2024-03-02T01:05:45;8.40;99.90
67974;DHT22;54756;51.140;6.952;2024-03-02T01:07:45;8.40;99.90
67974;DHT22;54756;51.140;6.952;2024-03-02T01:09:46;8.40;99.90
67974;DHT22;54756;51.140;6.952;2024-03-02T01:11:46;8.50;99.90
67974;DHT22;54756;51.140;6.952;2024-03-02T01:13:47;8.50;99.90
67974;DHT22;54756;51.140;6.952;2024-03-02T01:15:48;8.50;99.90
67974;DHT22;54756;51.140;6.952;2024-03-02T01:17:48;8.50;99.90
67974;DHT22;54756;51.140;6.952;2024-03-02T01:19:49;8.50;99.90
67974;DHT22;54756;51.140;6.952;2024-03-02T01:21:49;8.50;99.90
67974;DHT22;54756;51.140;6.952;2024-03-02T01:23:50;8.50;99.90
67974;DHT22;54756;51.140;6.952;2024-03-02T01:25:52;8.50;99.90
67974;DHT22;54756;51.140;6.952;2024-03-02T01:27:52;8.50;99.90
67974;DHT22;54756;51.140;6.952;2024-03-02T01:29:53;8.50;99.90
67974;DHT22;54756;51.140;6.952;2024-03-02T01:31:54;8.50;99.90
67974;DHT22;54756;51.140;6.952;2024-03-02T01:33:55;8.50;99.90
67974;DHT22;54756;51.140;6.952;2024-03-02T01:35:56;8.50;99.90
67974;DHT22;54756;51.140;6.952;2024-03-02T01:37:57;8.50;99.90
67974;DHT22;54756;51.140;6.952;2024-03-02T01:39:58;8.50;99.90
67974;DHT22;54756;51.140;6.952;2024-03-02T01:41:58;8.50;99.90
67974;DHT22;54756;51.140;6.952;2024-03-02T01:43:59;8.50;99.90
67974;DHT22;54756;51.140;6.952;2024-03-02T01:46:00;8.50;99.90
67974;DHT22;54756;51.140;6.952;2024-03-02T01:48:00;8.50;99.90
67974;DHT22;54756;51.140;6.952;2024-03-02T01:50:01;8.50;99.90
67974;DHT22;54756;51.140;6.952;2024-03-02T01:52:02;8.50;99.90
67974;DHT22;54756;51.140;6.952;2024-03-02T01:54:02;8.50;99.90
67974;DHT22;54756;51.140;6.952;2024-03-02T01:56:03;8.50;99.90
67974;DHT22;54756;51.140;6.952;2024-03-02T01:58:04;8.50;99.90
67974;DHT22;54756;51.140;6.952;2024-03-02T02:00:05;8.50;99.90
67974;DHT22;54756;51.140;6.952;2024-03-02T02:02:06;8.50;99.90
67974;DHT22;54756;51.140;6.952;2024-03-02T02:04:06;8.50;99.90
67974;DHT22;54756;51.140;6.952;2024-03-02T02:06:08;8.50;99.90
67974;DHT22;54756;51.140;6.952;2024-03-02T02:08:08;8.60;99.90
67974;DHT22;54756;51.140;6.952;2024-03-02T02:10:10;8.60;99.90
67974;DHT22;54756;51.140;6.952;2024-03-02T02:12:11;8.60;99.90
67974;DHT22;54756;51.140;6.952;2024-03-02T02:14:11;8.60;99.90
67974;DHT22;54756;51.140;6.952;2024-03-02T02:16:12;8.60;99.90
67974;DHT22;54756;51.140;6.952;2024-03-02T02:18:12;8.60;99.90
67974;DHT22;54756;51.140;6.952;2024-03-02T02:20:13;8.60;99.90
67974;DHT22;54756;51.140;6.952;2024-03-02T02:22:14;8.60;99.90
67974;DHT22;54756;51.140;6.952;2024-03-02T02:24:14;8.70;99.90
67974;DHT22;54756;51.140;6.952;2024-03-02T02:26:15;8.60;99.90
67974;DHT22;54756;51.140;6.952;2024-03-02T02:28:15;8.70;99.90
67974;DHT22;54756;51.140;6.952;2024-03-02T02:30:21;8.70;99.90
67974;DHT22;54756;51.140;6.952;2024-03-02T02:32:21;8.70;99.90
67974;DHT22;54756;51.140;6.952;2024-03-02T02:34:22;8.70;99.90
67974;DHT22;54756;51.140;6.952;2024-03-02T02:36:23;8.70;99.90
67974;DHT22;54756;51.140;6.952;2024-03-02T02:38:23;8.70;99.90
67974;DHT22;54756;51.140;6.952;2024-03-02T02:40:24;8.70;99.90
67974;DHT22;54756;51.140;6.952;2024-03-02T02:42:24;8.70;99.90
67974;DHT22;54756;51.140;6.952;2024-03-02T02:44:25;8.70;99.90
67974;DHT22;54756;51.140;6.952;2024-03-02T02:46:25;8.70;99.90
67974;DHT22;54756;51.140;6.952;2024-03-02T02:48:26;8.70;99.90
67974;DHT22;54756;51.140;6.952;2024-03-02T02:50:26;8.70;99.90
67974;DHT22;54756;51.140;6.952;2024-03-02T02:52:31;8.70;99.90
67974;DHT22;54756;51.140;6.952;2024-03-02T02:54:33;8.70;99.90
67974;DHT22;54756;51.140;6.952;2024-03-02T02:56:33;8.80;99.90
67974;DHT22;54756;51.140;6.952;2024-03-02T02:58:34;8.80;99.90
67974;DHT22;54756;51.140;6.952;2024-03-02T03:00:35;8.70;99.90
67974;DHT22;54756;51.140;6.952;2024-03-02T03:02:43;8.80;99.90
67974;DHT22;54756;51.140;6.952;2024-03-02T03:04:44;8.80;99.90
67974;DHT22;54756;51.140;6.952;2024-03-02T03:06:45;8.80;99.90
67974;DHT22;54756;51.140;6.952;2024-03-02T03:08:46;8.80;99.90
67974;DHT22;54756;51.140;6.952;2024-03-02T03:10:47;8.70;99.90
67974;DHT22;54756;51.140;6.952;2024-03-02T03:12:47;8.80;99.90
67974;DHT22;54756;51.140;6.952;2024-03-02T03:14:48;8.80;99.90
67974;DHT22;54756;51.140;6.952;2024-03-02T03:16:48;8.80;99.90
67974;DHT22;54756;51.140;6.952;2024-03-02T03:18:50;8.80;99.90
67974;DHT22;54756;51.140;6.952;2024-03-02T03:20:51;8.80;99.90
67974;DHT22;54756;51.140;6.952;2024-03-02T03:22:52;8.70;99.90
67974;DHT22;54756;51.140;6.952;2024-03-02T03:24:52;8.80;99.90
67974;DHT22;54756;51.140;6.952;2024-03-02T03:26:53;8.80;99.90
67974;DHT22;54756;51.140;6.952;2024-03-02T03:28:54;8.80;99.90
67974;DHT22;54756;51.140;6.952;2024-03-02T03:30:54;8.80;99.90
67974;DHT22;54756;51.140;6.952;2024-03-02T03:32:55;8.80;99.90
67974;DHT22;54756;51.140;6.952;2024-03-02T03:34:56;8.80;99.90
67974;DHT22;54756;51.140;6.952;2024-03-02T03:36:57;8.80;99.90
67974;DHT22;54756;51.140;6.952;2024-03-02T03:38:57;8.80;99.90
67974;DHT22;54756;51.140;6.952;2024-03-02T03:40:58;8.80;99.90
67974;DHT22;54756;51.140;6.952;2024-03-02T03:42:58;8.80;99.90
67974;DHT22;54756;51.140;6.952;2024-03-02T03:45:00;8.80;99.90
67974;DHT22;54756;51.140;6.952;2024-03-02T03:47:00;8.70;99.90
67974;DHT22;54756;51.140;6.952;2024-03-02T03:49:04;8.80;99.90
67974;DHT22;54756;51.140;6.952;2024-03-02T03:51:05;8.70;99.90
67974;DHT22;54756;51.140;6.952;2024-03-02T03:53:06;8.80;99.90
67974;DHT22;54756;51.140;6.952;2024-03-02T03:55:07;8.70;99.90
67974;DHT22;54756;51.140;6.952;2024-03-02T03:57:07;8.70;99.90
67974;DHT22;54756;51.140;6.952;2024-03-02T03:59:08;8.70;99.90
67974;DHT22;54756;51.140;6.952;2024-03-02T04:01:08;8.70;99.90
67974;DHT22;54756;51.140;6.952;2024-03-02T04:03:09;8.70;99.90
67974;DHT22;54756;51.140;6.952;2024-03-02T04:05:10;8.60;99.90
67974;DHT22;54756;51.140;6.952;2024-03-02T04:07:11;8.60;99.90
67974;DHT22;54756;51.140;6.952;2024-03-02T04:09:11;8.60;99.90
67974;DHT22;54756;51.140;6.952;2024-03-02T04:11:12;8.60;99.90
67974;DHT22;54756;51.140;6.952;2024-03-02T04:13:12;8.60;99.90
67974;DHT22;54756;51.140;6.952;2024-03-02T04:15:13;8.60;99.90
67974;DHT22;54756;51.140;6.952;2024-03-02T04:17:13;8.60;99.90
67974;DHT22;54756;51.140;6.952;2024-03-02T04:19:14;8.60;99.90
67974;DHT22;54756;51.140;6.952;2024-03-02T04:21:14;8.50;99.90
67974;DHT22;54756;51.140;6.952;2024-03-02T04:23:15;8.50;99.90
67974;DHT22;54756;51.140;6.952;2024-03-02T04:25:15;8.50;99.90
67974;DHT22;54756;51.140;6.952;2024-03-02T04:27:16;8.50;99.90
67974;DHT22;54756;51.140;6.952;2024-03-02T04:29:16;8.50;99.90
67974;DHT22;54756;51.140;6.952;2024-03-02T04:31:17;8.40;99.90
67974;DHT22;54756;51.140;6.952;2024-03-02T04:33:17;8.40;99.90
67974;DHT22;54756;51.140;6.952;2024-03-02T04:35:18;8.40;99.90
67974;DHT22;54756;51.140;6.952;2024-03-02T04:37:18;8.40;99.90
67974;DHT22;54756;51.140;6.952;2024-03-02T04:39:19;8.40;99.90
67974;DHT22;54756;51.140;6.952;2024-03-02T04:41:19;8.40;99.90
67974;DHT22;54756;51.140;6.952;2024-03-02T04:43:20;8.30;99.90
67974;DHT22;54756;51.140;6.952;2024-03-02T04:45:20;8.30;99.90
67974;DHT22;54756;51.140;6.952;2024-03-02T04:47:21;8.30;99.90
67974;DHT22;54756;51.140;6.952;2024-03-02T04:49:23;8.30;99.90
67974;DHT22;54756;51.140;6.952;2024-03-02T04:51:23;8.30;99.90
67974;DHT22;54756;51.140;6.952;2024-03-02T04:53:24;8.30;99.90
67974;DHT22;54756;51.140;6.952;2024-03-02T04:55:24;8.30;99.90
67974;DHT22;54756;51.140;6.952;2024-03-02T04:57:45;8.20;99.90
67974;DHT22;54756;51.140;6.952;2024-03-02T04:59:46;8.20;99.90
67974;DHT22;54756;51.140;6.952;2024-03-02T05:01:47;8.20;99.90
67974;DHT22;54756;51.140;6.952;2024-03-02T05:03:47;8.20;99.90
67974;DHT22;54756;51.140;6.952;2024-03-02T05:05:48;8.20;99.90
67974;DHT22;54756;51.140;6.952;2024-03-02T05:07:49;8.20;99.90
67974;DHT22;54756;51.140;6.952;2024-03-02T05:09:49;8.10;99.90
67974;DHT22;54756;51.140;6.952;2024-03-02T05:11:50;8.10;99.90
67974;DHT22;54756;51.140;6.952;2024-03-02T05:14:10;8.10;99.90
67974;DHT22;54756;51.140;6.952;2024-03-02T05:16:10;8.00;99.90
67974;DHT22;54756;51.140;6.952;2024-03-02T05:18:11;8.00;99.90
67974;DHT22;54756;51.140;6.952;2024-03-02T05:20:12;8.00;99.90
67974;DHT22;54756;51.140;6.952;2024-03-02T05:22:13;8.00;99.90
67974;DHT22;54756;51.140;6.952;2024-03-02T05:24:13;8.00;99.90
67974;DHT22;54756;51.140;6.952;2024-03-02T05:26:14;8.00;99.90
67974;DHT22;54756;51.140;6.952;2024-03-02T05:28:14;8.00;99.90
67974;DHT22;54756;51.140;6.952;2024-03-02T05:30:15;7.90;99.90
67974;DHT22;54756;51.140;6.952;2024-03-02T05:32:15;7.90;99.90
67974;DHT22;54756;51.140;6.952;2024-03-02T05:34:16;7.90;99.90
67974;DHT22;54756;51.140;6.952;2024-03-02T05:36:16;7.90;99.90
67974;DHT22;54756;51.140;6.952;2024-03-02T05:38:17;7.90;99.90
67974;DHT22;54756;51.140;6.952;2024-03-02T05:40:17;7.90;99.90
67974;DHT22;54756;51.140;6.952;2024-03-02T05:42:18;7.90;99.90
67974;DHT22;54756;51.140;6.952;2024-03-02T05:44:19;7.80;99.90
67974;DHT22;54756;51.140;6.952;2024-03-02T05:46:19;7.80;99.90
67974;DHT22;54756;51.140;6.952;2024-03-02T05:48:20;7.80;99.90
67974;DHT22;54756;51.140;6.952;2024-03-02T05:50:21;7.70;99.90
67974;DHT22;54756;51.140;6.952;2024-03-02T05:52:21;7.70;99.90
67974;DHT22;54756;51.140;6.952;2024-03-02T05:54:22;7.70;99.90
67974;DHT22;54756;51.140;6.952;2024-03-02T05:56:22;7.70;99.90
67974;DHT22;54756;51.140;6.952;2024-03-02T05:58:24;7.60;99.90
67974;DHT22;54756;51.140;6.952;2024-03-02T06:00:43;7.60;99.90
67974;DHT22;54756;51.140;6.952;2024-03-02T06:02:44;7.60;99.90
67974;DHT22;54756;51.140;6.952;2024-03-02T06:04:44;7.60;99.90
67974;DHT22;54756;51.140;6.952;2024-03-02T06:06:45;7.60;99.90
67974;DHT22;54756;51.140;6.952;2024-03-02T06:08:45;7.60;99.90
67974;DHT22;54756;51.140;6.952;2024-03-02T06:10:46;7.60;99.90
67974;DHT22;54756;51.140;6.952;2024-03-02T06:12:46;7.50;99.90
67974;DHT22;54756;51.140;6.952;2024-03-02T06:14:47;7.60;99.90
67974;DHT22;54756;51.140;6.952;2024-03-02T06:16:47;7.50;99.90
67974;DHT22;54756;51.140;6.952;2024-03-02T06:18:48;7.50;99.90
67974;DHT22;54756;51.140;6.952;2024-03-02T06:20:48;7.50;99.90
67974;DHT22;54756;51.140;6.952;2024-03-02T06:22:49;7.50;99.90
67974;DHT22;54756;51.140;6.952;2024-03-02T06:24:50;7.50;99.90
67974;DHT22;54756;51.140;6.952;2024-03-02T06:26:51;7.50;99.90
67974;DHT22;54756;51.140;6.952;2024-03-02T06:28:51;7.50;99.90
67974;DHT22;54756;51.140;6.952;2024-03-02T06:30:52;7.50;99.90
67974;DHT22;54756;51.140;6.952;2024-03-02T06:32:52;7.50;99.90
67974;DHT22;54756;51.140;6.952;2024-03-02T06:34:53;7.40;99.90
67974;DHT22;54756;51.140;6.952;2024-03-02T06:36:54;7.50;99.90
67974;DHT22;54756;51.140;6.952;2024-03-02T06:38:54;7.50;99.90
67974;DHT22;54756;51.140;6.952;2024-03-02T06:40:55;7.50;99.90
67974;DHT22;54756;51.140;6.952;2024-03-02T06:42:55;7.50;99.90
67974;DHT22;54756;51.140;6.952;2024-03-02T06:44:56;7.50;99.90
67974;DHT22;54756;51.140;6.952;2024-03-02T06:46:56;7.50;99.90
67974;DHT22;54756;51.140;6.952;2024-03-02T06:48:57;7.60;99.90
67974;DHT22;54756;51.140;6.952;2024-03-02T06:50:57;7.60;99.90
67974;DHT22;54756;51.140;6.952;2024-03-02T06:52:58;7.60;99.90
67974;DHT22;54756;51.140;6.952;2024-03-02T06:54:59;7.60;99.90
67974;DHT22;54756;51.140;6.952;2024-03-02T06:56:59;7.60;99.90
67974;DHT22;54756;51.140;6.952;2024-03-02T06:59:00;7.60;99.90
67974;DHT22;54756;51.140;6.952;2024-03-02T07:01:00;7.60;99.90
67974;DHT22;54756;51.140;6.952;2024-03-02T07:03:01;7.60;99.90
67974;DHT22;54756;51.140;6.952;2024-03-02T07:05:03;7.70;99.90
67974;DHT22;54756;51.140;6.952;2024-03-02T07:07:04;7.60;99.90
67974;DHT22;54756;51.140;6.952;2024-03-02T07:09:04;7.70;99.90
67974;DHT22;54756;51.140;6.952;2024-03-02T07:11:05;7.70;99.90
67974;DHT22;54756;51.140;6.952;2024-03-02T07:13:06;7.70;99.90
67974;DHT22;54756;51.140;6.952;2024-03-02T07:15:07;7.80;99.90
67974;DHT22;54756;51.140;6.952;2024-03-02T07:17:07;7.80;99.90
67974;DHT22;54756;51.140;6.952;2024-03-02T07:19:08;7.80;99.90
67974;DHT22;54756;51.140;6.952;2024-03-02T07:21:08;7.90;99.90
67974;DHT22;54756;51.140;6.952;2024-03-02T07:23:09;7.90;99.90
67974;DHT22;54756;51.140;6.952;2024-03-02T07:25:09;7.90;99.90
67974;DHT22;54756;51.140;6.952;2024-03-02T07:27:10;8.00;99.90
67974;DHT22;54756;51.140;6.952;2024-03-02T07:29:10;8.00;99.90
67974;DHT22;54756;51.140;6.952;2024-03-02T07:31:11;8.00;99.90
67974;DHT22;54756;51.140;6.952;2024-03-02T07:33:12;8.10;99.90
67974;DHT22;54756;51.140;6.952;2024-03-02T07:35:15;8.10;99.90
67974;DHT22;54756;51.140;6.952;2024-03-02T07:37:16;8.20;99.90
67974;DHT22;54756;51.140;6.952;2024-03-02T07:39:17;8.20;99.90
67974;DHT22;54756;51.140;6.952;2024-03-02T07:41:17;8.20;99.90
67974;DHT22;54756;51.140;6.952;2024-03-02T07:43:19;8.30;99.90
67974;DHT22;54756;51.140;6.952;2024-03-02T07:45:19;8.30;99.90
67974;DHT22;54756;51.140;6.952;2024-03-02T07:47:20;8.30;99.90
67974;DHT22;54756;51.140;6.952;2024-03-02T07:49:21;8.40;99.90
67974;DHT22;54756;51.140;6.952;2024-03-02T07:51:21;8.40;99.90
67974;DHT22;54756;51.140;6.952;2024-03-02T07:53:22;8.40;99.90
67974;DHT22;54756;51.140;6.952;2024-03-02T07:55:22;8.50;99.90
67974;DHT22;54756;51.140;6.952;2024-03-02T07:57:25;8.50;99.90
67974;DHT22;54756;51.140;6.952;2024-03-02T07:59:26;8.50;99.90
67974;DHT22;54756;51.140;6.952;2024-03-02T08:01:30;8.50;99.90
67974;DHT22;54756;51.140;6.952;2024-03-02T08:03:31;8.50;99.90
67974;DHT22;54756;51.140;6.952;2024-03-02T08:05:34;8.50;99.90
67974;DHT22;54756;51.140;6.952;2024-03-02T08:07:35;8.50;99.90
67974;DHT22;54756;51.140;6.952;2024-03-02T08:09:35;8.50;99.90
67974;DHT22;54756;51.140;6.952;2024-03-02T08:11:36;8.50;99.90
67974;DHT22;54756;51.140;6.952;2024-03-02T08:13:38;8.60;99.90
67974;DHT22;54756;51.140;6.952;2024-03-02T08:15:38;8.60;99.90
67974;DHT22;54756;51.140;6.952;2024-03-02T08:17:40;8.60;99.90
67974;DHT22;54756;51.140;6.952;2024-03-02T08:19:48;8.70;99.90
67974;DHT22;54756;51.140;6.952;2024-03-02T08:21:49;8.70;99.90
67974;DHT22;54756;51.140;6.952;2024-03-02T08:23:50;8.70;99.90
67974;DHT22;54756;51.140;6.952;2024-03-02T08:25:51;8.70;99.90
67974;DHT22;54756;51.140;6.952;2024-03-02T08:27:51;8.80;99.90
67974;DHT22;54756;51.140;6.952;2024-03-02T08:29:52;8.80;99.90
67974;DHT22;54756;51.140;6.952;2024-03-02T08:31:53;8.90;99.90
67974;DHT22;54756;51.140;6.952;2024-03-02T08:33:53;8.90;99.90
67974;DHT22;54756;51.140;6.952;2024-03-02T08:35:54;8.90;99.90
67974;DHT22;54756;51.140;6.952;2024-03-02T08:37:55;9.00;99.90
67974;DHT22;54756;51.140;6.952;2024-03-02T08:39:55;9.00;99.90
67974;DHT22;54756;51.140;6.952;2024-03-02T08:41:56;9.10;99.90
67974;DHT22;54756;51.140;6.952;2024-03-02T08:43:56;9.10;99.90
67974;DHT22;54756;51.140;6.952;2024-03-02T08:45:57;9.20;99.90
67974;DHT22;54756;51.140;6.952;2024-03-02T08:47:57;9.20;99.90
67974;DHT22;54756;51.140;6.952;2024-03-02T08:49:59;9.30;99.90
67974;DHT22;54756;51.140;6.952;2024-03-02T08:51:59;9.30;99.90
67974;DHT22;54756;51.140;6.952;2024-03-02T08:54:00;9.30;99.90
67974;DHT22;54756;51.140;6.952;2024-03-02T08:56:01;9.30;99.90
67974;DHT22;54756;51.140;6.952;2024-03-02T08:58:01;9.30;99.90
67974;DHT22;54756;51.140;6.952;2024-03-02T09:00:02;9.40;99.90
67974;DHT22;54756;51.140;6.952;2024-03-02T09:02:03;9.40;99.90
67974;DHT22;54756;51.140;6.952;2024-03-02T09:04:04;9.40;99.90
67974;DHT22;54756;51.140;6.952;2024-03-02T09:06:04;9.40;99.90
67974;DHT22;54756;51.140;6.952;2024-03-02T09:08:05;9.40;99.90
67974;DHT22;54756;51.140;6.952;2024-03-02T09:10:07;9.40;99.90
67974;DHT22;54756;51.140;6.952;2024-03-02T09:12:07;9.50;99.90
67974;DHT22;54756;51.140;6.952;2024-03-02T09:14:08;9.50;99.90
67974;DHT22;54756;51.140;6.952;2024-03-02T09:16:09;9.50;99.90
67974;DHT22;54756;51.140;6.952;2024-03-02T09:18:11;9.60;99.90
67974;DHT22;54756;51.140;6.952;2024-03-02T09:20:12;9.60;99.90
67974;DHT22;54756;51.140;6.952;2024-03-02T09:22:14;9.60;99.90
67974;DHT22;54756;51.140;6.952;2024-03-02T09:24:14;9.70;99.90
67974;DHT22;54756;51.140;6.952;2024-03-02T09:26:15;9.70;99.90
67974;DHT22;54756;51.140;6.952;2024-03-02T09:28:16;9.80;99.90
67974;DHT22;54756;51.140;6.952;2024-03-02T09:30:16;9.80;99.90
67974;DHT22;54756;51.140;6.952;2024-03-02T09:32:17;9.80;99.90
67974;DHT22;54756;51.140;6.952;2024-03-02T09:34:17;9.90;99.90
67974;DHT22;54756;51.140;6.952;2024-03-02T09:36:22;10.00;99.90
67974;DHT22;54756;51.140;6.952;2024-03-02T09:38:23;10.00;99.90
67974;DHT22;54756;51.140;6.952;2024-03-02T09:40:23;10.00;99.90
67974;DHT22;54756;51.140;6.952;2024-03-02T09:42:24;10.10;99.90
67974;DHT22;54756;51.140;6.952;2024-03-02T09:44:26;10.10;99.90
67974;DHT22;54756;51.140;6.952;2024-03-02T09:46:27;10.10;99.90
67974;DHT22;54756;51.140;6.952;2024-03-02T09:48:27;10.10;99.90
67974;DHT22;54756;51.140;6.952;2024-03-02T09:50:28;10.20;99.90
67974;DHT22;54756;51.140;6.952;2024-03-02T09:52:29;10.20;99.90
67974;DHT22;54756;51.140;6.952;2024-03-02T09:54:31;10.30;99.90
67974;DHT22;54756;51.140;6.952;2024-03-02T09:56:31;10.30;99.90
67974;DHT22;54756;51.140;6.952;2024-03-02T09:58:32;10.30;99.90
67974;DHT22;54756;51.140;6.952;2024-03-02T10:00:32;10.30;99.90
67974;DHT22;54756;51.140;6.952;2024-03-02T10:02:33;10.40;99.90
67974;DHT22;54756;51.140;6.952;2024-03-02T10:04:34;10.40;99.90
67974;DHT22;54756;51.140;6.952;2024-03-02T10:06:36;10.40;99.90
67974;DHT22;54756;51.140;6.952;2024-03-02T10:08:43;10.40;99.90
67974;DHT22;54756;51.140;6.952;2024-03-02T10:10:46;10.50;99.90
67974;DHT22;54756;51.140;6.952;2024-03-02T10:12:47;10.50;99.90
67974;DHT22;54756;51.140;6.952;2024-03-02T10:14:47;10.60;99.90
67974;DHT22;54756;51.140;6.952;2024-03-02T10:16:49;10.60;99.90
67974;DHT22;54756;51.140;6.952;2024-03-02T10:18:49;10.70;99.90
67974;DHT22;54756;51.140;6.952;2024-03-02T10:20:50;10.70;99.90
67974;DHT22;54756;51.140;6.952;2024-03-02T10:22:50;10.70;99.90
67974;DHT22;54756;51.140;6.952;2024-03-02T10:24:51;10.70;99.90
67974;DHT22;54756;51.140;6.952;2024-03-02T10:26:52;10.80;99.90
67974;DHT22;54756;51.140;6.952;2024-03-02T10:28:53;10.80;99.90
67974;DHT22;54756;51.140;6.952;2024-03-02T10:30:59;10.80;99.90
67974;DHT22;54756;51.140;6.952;2024-03-02T10:33:05;10.80;99.90
67974;DHT22;54756;51.140;6.952;2024-03-02T10:35:06;10.90;99.90
67974;DHT22;54756;51.140;6.952;2024-03-02T10:37:07;10.90;99.90
67974;DHT22;54756;51.140;6.952;2024-03-02T10:39:08;10.90;99.90
67974;DHT22;54756;51.140;6.952;2024-03-02T10:41:09;11.00;99.90
67974;DHT22;54756;51.140;6.952;2024-03-02T10:43:10;11.00;99.90
67974;DHT22;54756;51.140;6.952;2024-03-02T10:45:12;11.10;99.90
67974;DHT22;54756;51.140;6.952;2024-03-02T10:47:15;11.10;99.90
67974;DHT22;54756;51.140;6.952;2024-03-02T10:49:18;11.10;99.90
67974;DHT22;54756;51.140;6.952;2024-03-02T10:51:19;11.10;99.90
67974;DHT22;54756;51.140;6.952;2024-03-02T10:53:19;11.10;99.90
67974;DHT22;54756;51.140;6.952;2024-03-02T10:55:20;11.20;99.90
67974;DHT22;54756;51.140;6.952;2024-03-02T10:57:21;11.20;99.90
67974;DHT22;54756;51.140;6.952;2024-03-02T10:59:27;11.20;99.90
67974;DHT22;54756;51.140;6.952;2024-03-02T11:01:30;11.30;99.90
67974;DHT22;54756;51.140;6.952;2024-03-02T11:03:35;11.30;99.90
67974;DHT22;54756;51.140;6.952;2024-03-02T11:05:40;11.40;99.90
67974;DHT22;54756;51.140;6.952;2024-03-02T11:07:44;11.40;99.90
67974;DHT22;54756;51.140;6.952;2024-03-02T11:09:54;11.40;99.90
67974;DHT22;54756;51.140;6.952;2024-03-02T11:14:01;11.40;99.90
67974;DHT22;54756;51.140;6.952;2024-03-02T11:16:36;11.50;99.90
67974;DHT22;54756;51.140;6.952;2024-03-02T11:18:38;11.50;99.90
67974;DHT22;54756;51.140;6.952;2024-03-02T11:20:39;11.50;99.90
67974;DHT22;54756;51.140;6.952;2024-03-02T11:22:41;11.60;99.90
67974;DHT22;54756;51.140;6.952;2024-03-02T11:24:48;11.60;99.90
67974;DHT22;54756;51.140;6.952;2024-03-02T11:26:50;11.60;99.90
67974;DHT22;54756;51.140;6.952;2024-03-02T11:28:53;11.70;99.90
67974;DHT22;54756;51.140;6.952;2024-03-02T11:30:54;11.70;99.90
67974;DHT22;54756;51.140;6.952;2024-03-02T11:32:55;11.70;99.90
67974;DHT22;54756;51.140;6.952;2024-03-02T11:34:56;11.80;99.90
67974;DHT22;54756;51.140;6.952;2024-03-02T11:37:06;11.80;99.90
67974;DHT22;54756;51.140;6.952;2024-03-02T11:39:07;11.80;99.90
67974;DHT22;54756;51.140;6.952;2024-03-02T11:41:08;11.80;99.90
67974;DHT22;54756;51.140;6.952;2024-03-02T11:43:09;11.90;99.90
67974;DHT22;54756;51.140;6.952;2024-03-02T11:45:11;11.90;99.90
67974;DHT22;54756;51.140;6.952;2024-03-02T11:47:13;11.90;99.90
67974;DHT22;54756;51.140;6.952;2024-03-02T11:49:15;12.00;99.90
67974;DHT22;54756;51.140;6.952;2024-03-02T11:51:16;12.00;99.90
67974;DHT22;54756;51.140;6.952;2024-03-02T11:53:17;12.00;99.90
67974;DHT22;54756;51.140;6.952;2024-03-02T11:55:19;12.00;99.90
67974;DHT22;54756;51.140;6.952;2024-03-02T11:57:21;12.10;99.90
67974;DHT22;54756;51.140;6.952;2024-03-02T11:59:24;12.10;99.90
67974;DHT22;54756;51.140;6.952;2024-03-02T12:01:26;12.10;99.90
67974;DHT22;54756;51.140;6.952;2024-03-02T12:03:27;12.20;99.90
67974;DHT22;54756;51.140;6.952;2024-03-02T12:05:28;12.20;99.90
67974;DHT22;54756;51.140;6.952;2024-03-02T12:07:28;12.20;99.90
67974;DHT22;54756;51.140;6.952;2024-03-02T12:09:30;12.30;99.90
67974;DHT22;54756;51.140;6.952;2024-03-02T12:11:30;12.30;99.90
67974;DHT22;54756;51.140;6.952;2024-03-02T12:13:31;12.40;99.90
67974;DHT22;54756;51.140;6.952;2024-03-02T12:15:34;12.40;99.90
67974;DHT22;54756;51.140;6.952;2024-03-02T12:17:34;12.50;99.90
67974;DHT22;54756;51.140;6.952;2024-03-02T12:19:37;12.50;99.90
67974;DHT22;54756;51.140;6.952;2024-03-02T12:21:38;12.50;99.90
67974;DHT22;54756;51.140;6.952;2024-03-02T12:23:38;12.50;99.90
67974;DHT22;54756;51.140;6.952;2024-03-02T12:25:39;12.50;99.90
67974;DHT22;54756;51.140;6.952;2024-03-02T12:27:40;12.50;99.90
67974;DHT22;54756;51.140;6.952;2024-03-02T12:29:41;12.50;99.90
67974;DHT22;54756;51.140;6.952;2024-03-02T12:31:44;12.60;99.90
67974;DHT22;54756;51.140;6.952;2024-03-02T12:33:48;12.50;99.90
67974;DHT22;54756;51.140;6.952;2024-03-02T12:35:49;12.50;99.90
67974;DHT22;54756;51.140;6.952;2024-03-02T12:37:51;12.50;99.90
67974;DHT22;54756;51.140;6.952;2024-03-02T12:39:52;12.60;99.90
67974;DHT22;54756;51.140;6.952;2024-03-02T12:41:53;12.50;99.90
67974;DHT22;54756;51.140;6.952;2024-03-02T12:43:54;12.60;99.90
67974;DHT22;54756;51.140;6.952;2024-03-02T12:45:55;12.60;99.90
67974;DHT22;54756;51.140;6.952;2024-03-02T12:47:56;12.60;99.90
67974;DHT22;54756;51.140;6.952;2024-03-02T12:49:56;12.60;99.90
67974;DHT22;54756;51.140;6.952;2024-03-02T12:51:59;12.60;99.90
67974;DHT22;54756;51.140;6.952;2024-03-02T12:53:59;12.70;99.90
67974;DHT22;54756;51.140;6.952;2024-03-02T12:56:00;12.70;99.90
67974;DHT22;54756;51.140;6.952;2024-03-02T12:58:00;12.60;99.90
67974;DHT22;54756;51.140;6.952;2024-03-02T13:00:06;12.70;99.90